createdAt,value
2023-03-26T00:00:45.008Z,6.50
2023-03-26T00:03:18.379Z,6.50
2023-03-26T00:06:00.810Z,6.50
2023-03-26T00:08:32.516Z,6.50
2023-03-26T00:11:06.683Z,6.40
2023-03-26T00:13:39.345Z,6.40
2023-03-26T00:16:13.720Z,6.40
2023-03-26T00:18:46.583Z,6.50
2023-03-26T00:21:21.841Z,6.70
2023-03-26T00:23:59.775Z,6.70
2023-03-26T00:26:33.558Z,6.80
2023-03-26T00:29:09.871Z,6.80
2023-03-26T00:31:46.172Z,6.90
2023-03-26T00:34:18.804Z,6.80
2023-03-26T00:36:54.655Z,6.80
2023-03-26T00:39:27.321Z,6.80
2023-03-26T00:41:59.188Z,6.70
2023-03-26T00:44:30.896Z,6.70
2023-03-26T00:47:03.619Z,6.70
2023-03-26T00:49:35.490Z,6.70
2023-03-26T00:52:08.657Z,6.70
2023-03-26T00:54:40.869Z,6.70
2023-03-26T00:57:16.375Z,6.70
2023-03-26T00:59:54.416Z,6.80
2023-03-26T01:02:27.335Z,6.80
2023-03-26T01:05:02.896Z,6.80
2023-03-26T01:07:35.207Z,6.80
2023-03-26T01:10:07.455Z,6.80
2023-03-26T01:12:39.363Z,6.80
2023-03-26T01:15:13.785Z,6.80
2023-03-26T01:17:45.973Z,6.70
2023-03-26T01:20:26.892Z,6.70
2023-03-26T01:23:05.341Z,6.70
2023-03-26T01:25:45.132Z,6.60
2023-03-26T01:28:19.449Z,6.60
2023-03-26T01:31:06.758Z,6.60
2023-03-26T01:33:57.917Z,6.70
2023-03-26T01:36:56.269Z,6.70
2023-03-26T01:39:57.170Z,6.70
2023-03-26T01:42:46.244Z,6.60
2023-03-26T01:45:23.906Z,6.50
2023-03-26T01:47:56.672Z,6.40
2023-03-26T01:50:28.534Z,6.30
2023-03-26T01:53:01.043Z,6.30
2023-03-26T01:55:43.563Z,6.30
2023-03-26T01:58:31.099Z,6.30
2023-03-26T02:01:20.042Z,6.40
2023-03-26T02:04:14.692Z,6.50
2023-03-26T02:06:53.741Z,6.50
2023-03-26T02:09:31.259Z,6.40
2023-03-26T02:12:05.332Z,6.30
2023-03-26T02:14:37.172Z,6.30
2023-03-26T02:17:10.707Z,6.20
2023-03-26T02:19:44.991Z,6.20
2023-03-26T02:22:17.309Z,6.10
2023-03-26T02:24:49.093Z,6.10
2023-03-26T02:27:21.016Z,6.10
2023-03-26T02:29:52.873Z,6.10
2023-03-26T02:32:24.921Z,6.10
2023-03-26T02:34:57.614Z,6.10
2023-03-26T02:37:30.463Z,6.10
2023-03-26T02:40:04.677Z,6.20
2023-03-26T02:42:36.835Z,6.20
2023-03-26T02:45:09.118Z,6.20
2023-03-26T02:47:40.954Z,6.10
2023-03-26T02:50:12.837Z,6.00
2023-03-26T02:52:45.322Z,6.00
2023-03-26T02:55:17.105Z,5.90
2023-03-26T02:57:48.861Z,5.90
2023-03-26T03:00:22.709Z,5.90
2023-03-26T03:02:57.891Z,5.80
2023-03-26T03:05:33.611Z,5.80
2023-03-26T03:08:05.948Z,5.70
2023-03-26T03:10:37.803Z,5.70
2023-03-26T03:13:09.533Z,5.70
2023-03-26T03:15:41.303Z,5.70
2023-03-26T03:18:13.112Z,5.70
2023-03-26T03:20:44.886Z,5.70
2023-03-26T03:23:17.210Z,5.70
2023-03-26T03:25:50.796Z,5.70
2023-03-26T03:28:23.450Z,5.80
2023-03-26T03:30:57.588Z,5.80
2023-03-26T03:33:29.490Z,5.80
2023-03-26T03:36:01.394Z,5.80
2023-03-26T03:38:33.148Z,5.80
2023-03-26T03:41:05.278Z,5.80
2023-03-26T03:43:37.349Z,5.90
2023-03-26T03:46:09.181Z,5.90
2023-03-26T03:48:41.062Z,5.90
2023-03-26T03:51:12.831Z,5.90
2023-03-26T03:53:45.994Z,5.90
2023-03-26T03:56:19.513Z,5.90
2023-03-26T03:58:51.610Z,5.90
2023-03-26T04:01:23.509Z,6.00
2023-03-26T04:03:55.433Z,5.90
2023-03-26T04:06:30.162Z,5.90
2023-03-26T04:09:01.912Z,5.90
2023-03-26T04:11:33.645Z,5.90
2023-03-26T04:14:05.531Z,5.90
2023-03-26T04:16:37.300Z,5.90
2023-03-26T04:19:09.119Z,5.80
2023-03-26T04:21:42.729Z,5.80
2023-03-26T04:24:14.513Z,5.80
2023-03-26T04:26:48.041Z,5.80
2023-03-26T04:29:23.923Z,5.80
2023-03-26T04:32:06.965Z,5.80
2023-03-26T04:34:39.014Z,5.80
2023-03-26T04:37:20.441Z,5.80
2023-03-26T04:39:52.389Z,5.90
2023-03-26T04:42:24.173Z,5.90
2023-03-26T04:44:55.882Z,5.90
2023-03-26T04:47:28.993Z,5.90
2023-03-26T04:50:00.753Z,5.90
2023-03-26T04:52:33.190Z,5.90
2023-03-26T04:55:13.808Z,5.90
2023-03-26T04:57:50.753Z,5.90
2023-03-26T05:00:22.729Z,5.90
2023-03-26T05:02:57.646Z,5.90
2023-03-26T05:05:30.026Z,6.00
2023-03-26T05:08:01.844Z,6.00
2023-03-26T05:10:33.550Z,6.00
2023-03-26T05:13:05.395Z,6.00
2023-03-26T05:15:37.117Z,6.00
2023-03-26T05:18:09.101Z,6.00
2023-03-26T05:20:43.561Z,6.00
2023-03-26T05:23:15.513Z,6.00
2023-03-26T05:25:47.341Z,6.00
2023-03-26T05:28:20.724Z,6.10
2023-03-26T05:30:53.562Z,6.10
2023-03-26T05:33:26.147Z,6.20
2023-03-26T05:36:03.513Z,6.20
2023-03-26T05:38:36.019Z,6.20
2023-03-26T05:41:09.223Z,6.20
2023-03-26T05:43:41.208Z,6.20
2023-03-26T05:46:13.488Z,6.20
2023-03-26T05:48:45.778Z,6.20
2023-03-26T05:51:17.916Z,6.20
2023-03-26T05:53:49.659Z,6.30
2023-03-26T05:56:21.449Z,6.20
2023-03-26T05:58:53.253Z,6.20
2023-03-26T06:01:25.962Z,6.30
2023-03-26T06:03:57.740Z,6.30
2023-03-26T06:06:31.138Z,6.40
2023-03-26T06:09:04.521Z,6.40
2023-03-26T06:11:36.312Z,6.40
2023-03-26T06:14:08.078Z,6.40
2023-03-26T06:16:39.922Z,6.40
2023-03-26T06:19:12.055Z,6.40
2023-03-26T06:21:43.797Z,6.40
2023-03-26T06:24:16.599Z,6.50
2023-03-26T06:26:48.527Z,6.50
2023-03-26T06:29:20.516Z,6.60
2023-03-26T06:31:52.333Z,6.60
2023-03-26T06:34:24.106Z,6.60
2023-03-26T06:36:55.963Z,6.60
2023-03-26T06:39:27.873Z,6.70
2023-03-26T06:41:59.608Z,6.70
2023-03-26T06:44:31.444Z,6.80
2023-03-26T06:47:03.265Z,6.80
2023-03-26T06:49:35.061Z,6.90
2023-03-26T06:52:06.837Z,7.00
2023-03-26T06:54:38.692Z,7.00
2023-03-26T06:57:10.577Z,7.10
2023-03-26T06:59:42.539Z,7.10
2023-03-26T07:02:14.464Z,7.20
2023-03-26T07:04:46.221Z,7.20
2023-03-26T07:07:21.634Z,7.20
2023-03-26T07:09:53.424Z,7.30
2023-03-26T07:12:26.380Z,7.30
2023-03-26T07:15:00.345Z,7.40
2023-03-26T07:17:32.397Z,7.30
2023-03-26T07:20:06.445Z,7.30
2023-03-26T07:22:38.718Z,7.30
2023-03-26T07:25:11.717Z,7.20
2023-03-26T07:27:49.452Z,7.20
2023-03-26T07:30:26.921Z,7.20
2023-03-26T07:33:19.433Z,7.20
2023-03-26T07:36:08.021Z,7.10
2023-03-26T07:39:01.606Z,7.10
2023-03-26T07:41:47.102Z,7.00
2023-03-26T07:44:41.518Z,7.00
2023-03-26T07:47:33.525Z,7.00
2023-03-26T07:50:06.327Z,7.00
2023-03-26T07:52:38.144Z,7.00
2023-03-26T07:55:14.482Z,7.00
2023-03-26T07:58:21.754Z,7.00
2023-03-26T08:01:03.513Z,7.10
2023-03-26T08:03:49.240Z,7.10
2023-03-26T08:06:37.607Z,7.10
2023-03-26T08:09:09.345Z,7.10
2023-03-26T08:11:53.995Z,7.10
2023-03-26T08:15:18.726Z,7.10
2023-03-26T08:17:59.950Z,7.10
2023-03-26T08:20:38.094Z,7.10
2023-03-26T08:23:23.492Z,7.10
2023-03-26T08:26:19.591Z,7.10
2023-03-26T08:29:07.029Z,7.20
2023-03-26T08:31:41.459Z,7.20
2023-03-26T08:34:13.352Z,7.20
2023-03-26T08:36:45.986Z,7.30
2023-03-26T08:39:18.197Z,7.30
2023-03-26T08:41:55.811Z,7.40
2023-03-26T08:44:33.690Z,7.50
2023-03-26T08:47:28.698Z,7.60
2023-03-26T08:50:18.980Z,7.60
2023-03-26T08:52:59.763Z,7.70
2023-03-26T08:55:36.363Z,7.80
2023-03-26T08:58:46.581Z,7.80
2023-03-26T09:01:46.788Z,7.80
2023-03-26T09:04:38.232Z,7.80
2023-03-26T09:07:46.090Z,7.90
2023-03-26T09:10:41.176Z,8.00
2023-03-26T09:13:44.243Z,8.20
2023-03-26T09:16:18.898Z,8.60
2023-03-26T09:19:15.539Z,9.10
2023-03-26T09:22:16.779Z,9.30
2023-03-26T09:25:06.913Z,9.40
2023-03-26T09:28:10.081Z,9.50
2023-03-26T09:31:17.081Z,10.40
2023-03-26T09:34:00.332Z,11.80
2023-03-26T09:36:39.832Z,12.60
2023-03-26T09:39:45.140Z,13.50
2023-03-26T09:42:55.692Z,13.50
2023-03-26T09:45:54.618Z,14.10
2023-03-26T09:48:35.870Z,13.60
2023-03-26T09:51:13.614Z,13.00
2023-03-26T09:53:53.991Z,13.10
2023-03-26T09:56:58.653Z,13.70
2023-03-26T09:59:33.657Z,14.00
2023-03-26T10:02:22.179Z,13.40
2023-03-26T10:05:41.447Z,12.70
2023-03-26T10:08:16.412Z,11.80
2023-03-26T10:11:18.485Z,11.50
2023-03-26T10:14:01.352Z,12.10
2023-03-26T10:16:51.871Z,12.20
2023-03-26T10:19:43.112Z,12.20
2023-03-26T10:22:42.386Z,12.40
2023-03-26T10:25:26.178Z,13.80
2023-03-26T10:28:07.670Z,14.10
2023-03-26T10:30:51.309Z,13.40
2023-03-26T10:33:37.030Z,13.20
2023-03-26T10:36:34.457Z,12.60
2023-03-26T10:39:37.090Z,12.50
2023-03-26T10:42:13.964Z,12.90
2023-03-26T10:44:54.931Z,14.00
2023-03-26T10:47:52.927Z,14.50
2023-03-26T10:50:39.779Z,15.30
2023-03-26T10:53:29.210Z,16.30
2023-03-26T10:56:27.615Z,16.60
2023-03-26T10:59:04.834Z,16.00
2023-03-26T11:01:58.465Z,16.30
2023-03-26T11:04:52.844Z,16.40
2023-03-26T11:07:44.914Z,16.40
2023-03-26T11:10:29.080Z,16.30
2023-03-26T11:13:12.453Z,15.50
2023-03-26T11:15:53.700Z,15.30
2023-03-26T11:18:25.522Z,14.50
2023-03-26T11:21:29.232Z,13.60
2023-03-26T11:24:27.176Z,12.90
2023-03-26T11:27:35.853Z,12.90
2023-03-26T11:30:16.904Z,14.00
2023-03-26T11:33:20.800Z,14.40
2023-03-26T11:35:56.815Z,14.00
2023-03-26T11:38:38.958Z,13.40
2023-03-26T11:41:22.575Z,13.00
2023-03-26T11:44:04.006Z,12.90
2023-03-26T11:46:40.163Z,12.80
2023-03-26T11:49:16.653Z,12.60
2023-03-26T11:51:48.988Z,12.70
2023-03-26T11:54:21.064Z,12.70
2023-03-26T11:57:12.194Z,12.80
2023-03-26T11:59:57.148Z,12.90
2023-03-26T12:02:39.626Z,12.80
2023-03-26T12:05:13.558Z,12.90
2023-03-26T12:07:49.593Z,12.80
2023-03-26T12:10:28.318Z,12.90
2023-03-26T12:13:05.857Z,13.00
2023-03-26T12:15:43.988Z,13.00
2023-03-26T12:18:25.295Z,13.10
2023-03-26T12:21:18.641Z,13.00
2023-03-26T12:23:56.395Z,13.10
2023-03-26T12:26:36.725Z,13.10
2023-03-26T12:29:14.180Z,13.20
2023-03-26T12:32:04.501Z,13.40
2023-03-26T12:34:38.315Z,13.60
2023-03-26T12:37:35.667Z,13.60
2023-03-26T12:40:25.490Z,13.60
2023-03-26T12:44:49.666Z,13.40
2023-03-26T12:47:56.075Z,13.40
2023-03-26T12:49:28.401Z,13.20
2023-03-26T12:52:42.452Z,12.90
2023-03-26T12:55:30.040Z,12.80
2023-03-26T12:58:33.565Z,12.90
2023-03-26T13:01:33.246Z,12.90
2023-03-26T13:04:13.543Z,12.90
2023-03-26T13:07:01.957Z,12.90
2023-03-26T13:09:43.312Z,13.00
2023-03-26T13:12:30.447Z,12.80
2023-03-26T13:15:31.337Z,13.20
2023-03-26T13:18:27.302Z,13.20
2023-03-26T13:21:02.060Z,13.20
2023-03-26T13:23:41.772Z,13.30
2023-03-26T13:26:52.619Z,13.40
2023-03-26T13:29:30.450Z,13.20
2023-03-26T13:32:23.194Z,13.10
2023-03-26T13:35:28.905Z,13.20
2023-03-26T13:38:13.981Z,13.30
2023-03-26T13:40:48.487Z,13.30
2023-03-26T13:43:35.004Z,13.30
2023-03-26T13:46:24.859Z,13.10
2023-03-26T13:49:15.351Z,12.90
2023-03-26T13:51:58.580Z,12.90
2023-03-26T13:54:37.078Z,13.00
2023-03-26T13:57:31.783Z,12.90
2023-03-26T14:00:16.431Z,12.50
2023-03-26T14:03:01.924Z,12.30
2023-03-26T14:05:47.124Z,12.10
2023-03-26T14:08:37.744Z,11.90
2023-03-26T14:11:16.826Z,11.60
2023-03-26T14:13:56.139Z,11.20
2023-03-26T14:16:41.308Z,10.50
2023-03-26T14:19:31.925Z,9.90
2023-03-26T14:22:27.333Z,9.60
2023-03-26T14:25:40.490Z,9.30
2023-03-26T14:28:24.266Z,8.70
2023-03-26T14:31:23.694Z,8.50
2023-03-26T14:34:19.628Z,8.30
2023-03-26T14:37:09.598Z,8.30
2023-03-26T14:40:00.135Z,8.40
2023-03-26T14:42:43.054Z,8.50
2023-03-26T14:45:43.749Z,8.50
2023-03-26T14:48:21.665Z,8.60
2023-03-26T14:51:24.070Z,8.80
2023-03-26T14:54:02.710Z,8.90
2023-03-26T14:56:43.592Z,8.90
2023-03-26T14:59:31.316Z,8.90
2023-03-26T15:02:17.914Z,9.00
2023-03-26T15:05:11.384Z,9.00
2023-03-26T15:08:14.672Z,8.90
2023-03-26T15:11:07.984Z,9.00
2023-03-26T15:14:40.425Z,9.00
2023-03-26T15:17:39.315Z,9.00
2023-03-26T15:20:38.361Z,8.80
2023-03-26T15:23:28.900Z,8.60
2023-03-26T15:26:41.651Z,8.40
2023-03-26T15:29:37.283Z,8.30
2023-03-26T15:32:25.844Z,8.20
2023-03-26T15:35:09.890Z,8.00
2023-03-26T15:38:15.177Z,7.90
2023-03-26T15:41:24.177Z,7.60
2023-03-26T15:44:23.925Z,7.60
2023-03-26T15:47:20.083Z,7.50
2023-03-26T15:50:16.137Z,7.40
2023-03-26T15:53:02.382Z,7.40
2023-03-26T15:56:02.976Z,7.40
2023-03-26T15:58:46.572Z,7.30
2023-03-26T16:01:34.569Z,7.30
2023-03-26T16:04:29.652Z,7.40
2023-03-26T16:07:28.961Z,7.40
2023-03-26T16:10:22.084Z,7.50
2023-03-26T16:13:31.878Z,7.50
2023-03-26T16:16:03.948Z,7.50
2023-03-26T16:18:41.155Z,7.50
2023-03-26T16:21:31.198Z,7.50
2023-03-26T16:24:07.360Z,7.60
2023-03-26T16:27:08.042Z,7.50
2023-03-26T16:30:26.409Z,7.50
2023-03-26T16:33:12.984Z,7.40
2023-03-26T16:35:47.719Z,7.30
2023-03-26T16:38:24.833Z,7.20
2023-03-26T16:41:50.347Z,7.20
2023-03-26T16:44:34.939Z,7.20
2023-03-26T16:47:18.403Z,7.10
2023-03-26T16:50:07.514Z,7.10
2023-03-26T16:52:55.151Z,7.10
2023-03-26T16:55:38.740Z,7.20
2023-03-26T16:58:28.805Z,7.20
2023-03-26T17:01:19.290Z,7.10
2023-03-26T17:04:24.640Z,7.20
2023-03-26T17:07:16.503Z,7.20
2023-03-26T17:10:16.052Z,7.20
2023-03-26T17:13:17.167Z,7.20
2023-03-26T17:15:58.186Z,7.20
2023-03-26T17:18:32.993Z,7.20
2023-03-26T17:21:45.965Z,7.20
2023-03-26T17:24:40.724Z,7.10
2023-03-26T17:27:18.752Z,7.10
2023-03-26T17:30:07.773Z,7.10
2023-03-26T17:32:55.515Z,7.10
2023-03-26T17:35:45.724Z,7.00
2023-03-26T17:38:17.409Z,7.00
2023-03-26T17:40:58.476Z,7.00
2023-03-26T17:43:46.105Z,6.90
2023-03-26T17:46:39.408Z,6.80
2023-03-26T17:49:31.068Z,6.80
2023-03-26T17:52:22.484Z,6.70
2023-03-26T17:54:56.693Z,6.60
2023-03-26T17:57:42.767Z,6.60
2023-03-26T18:00:22.892Z,6.60
2023-03-26T18:03:02.558Z,6.60
2023-03-26T18:05:38.691Z,6.50
2023-03-26T18:08:31.284Z,6.50
2023-03-26T18:11:03.194Z,6.50
2023-03-26T18:14:10.363Z,6.60
2023-03-26T18:16:51.647Z,6.60
2023-03-26T18:19:24.937Z,6.60
2023-03-26T18:21:58.829Z,6.60
2023-03-26T18:24:35.916Z,6.50
2023-03-26T18:27:14.771Z,6.50
2023-03-26T18:30:01.613Z,6.50
2023-03-26T18:32:34.873Z,6.50
2023-03-26T18:35:40.593Z,6.50
2023-03-26T18:38:35.992Z,6.40
2023-03-26T18:41:22.984Z,6.40
2023-03-26T18:43:55.500Z,6.40
2023-03-26T18:46:27.471Z,6.40
2023-03-26T18:49:02.919Z,6.50
2023-03-26T18:51:43.150Z,6.50
2023-03-26T18:54:20.748Z,6.60
2023-03-26T18:56:52.719Z,6.60
2023-03-26T18:59:32.086Z,6.60
2023-03-26T19:02:08.882Z,6.60
2023-03-26T19:04:46.167Z,6.50
2023-03-26T19:07:27.600Z,6.50
2023-03-26T19:10:01.343Z,6.50
2023-03-26T19:12:34.007Z,6.50
2023-03-26T19:15:15.777Z,6.50
2023-03-26T19:17:53.232Z,6.50
2023-03-26T19:20:29.205Z,6.50
2023-03-26T19:23:01.047Z,6.50
2023-03-26T19:25:56.886Z,6.50
2023-03-26T19:28:35.664Z,6.40
2023-03-26T19:31:14.894Z,6.40
2023-03-26T19:33:58.277Z,6.30
2023-03-26T19:36:32.221Z,6.20
2023-03-26T19:39:12.071Z,6.20
2023-03-26T19:41:49.789Z,6.10
2023-03-26T19:44:26.828Z,6.10
2023-03-26T19:47:07.874Z,6.10
2023-03-26T19:49:56.289Z,6.10
2023-03-26T19:52:38.352Z,6.00
2023-03-26T19:55:21.855Z,6.10
2023-03-26T19:57:53.649Z,6.00
2023-03-26T20:00:25.457Z,5.90
2023-03-26T20:02:58.506Z,5.80
2023-03-26T20:05:34.360Z,5.80
2023-03-26T20:08:15.181Z,5.70
2023-03-26T20:10:46.914Z,5.70
2023-03-26T20:13:18.696Z,5.60
2023-03-26T20:16:10.694Z,5.60
2023-03-26T20:18:42.457Z,5.60
2023-03-26T20:21:14.483Z,5.60
2023-03-26T20:23:46.412Z,5.60
2023-03-26T20:26:18.586Z,5.60
2023-03-26T20:28:53.376Z,5.50
2023-03-26T20:31:26.709Z,5.40
2023-03-26T20:33:59.382Z,5.40
2023-03-26T20:36:33.881Z,5.40
2023-03-26T20:39:07.640Z,5.30
2023-03-26T20:41:46.374Z,5.30
2023-03-26T20:44:21.036Z,5.30
2023-03-26T20:46:53.226Z,5.30
2023-03-26T20:49:24.954Z,5.30
2023-03-26T20:51:57.557Z,5.30
2023-03-26T20:54:32.016Z,5.30
2023-03-26T20:57:03.911Z,5.30
2023-03-26T20:59:35.921Z,5.30
2023-03-26T21:02:07.726Z,5.30
2023-03-26T21:04:39.734Z,5.30
2023-03-26T21:07:18.106Z,5.30
2023-03-26T21:09:50.359Z,5.40
2023-03-26T21:12:34.961Z,5.40
2023-03-26T21:15:16.856Z,5.50
2023-03-26T21:17:52.981Z,5.50
2023-03-26T21:20:27.936Z,5.50
2023-03-26T21:23:08.728Z,5.60
2023-03-26T21:25:49.542Z,5.60
2023-03-26T21:28:32.249Z,5.70
2023-03-26T21:31:19.394Z,5.60
2023-03-26T21:33:51.883Z,5.70
2023-03-26T21:36:24.151Z,5.70
2023-03-26T21:38:56.194Z,5.70
2023-03-26T21:41:44.860Z,5.70
2023-03-26T21:44:18.373Z,5.70
2023-03-26T21:46:51.041Z,5.70
2023-03-26T21:49:23.085Z,5.70
2023-03-26T21:51:55.158Z,5.80
2023-03-26T21:54:28.225Z,5.90
2023-03-26T21:57:35.376Z,5.90
2023-03-26T22:00:18.433Z,5.90
2023-03-26T22:03:08.310Z,5.90
2023-03-26T22:06:04.013Z,5.90
2023-03-26T22:08:41.394Z,5.90
2023-03-26T22:11:13.306Z,5.90
2023-03-26T22:13:45.264Z,6.00
2023-03-26T22:16:18.783Z,6.00
2023-03-26T22:18:51.166Z,6.00
2023-03-26T22:21:23.407Z,5.90
2023-03-26T22:23:55.334Z,5.90
2023-03-26T22:26:27.234Z,6.00
2023-03-26T22:28:59.244Z,6.00
2023-03-26T22:31:31.185Z,6.00
2023-03-26T22:34:03.065Z,6.00
2023-03-26T22:36:35.177Z,5.90
2023-03-26T22:39:07.182Z,5.90
2023-03-26T22:41:39.161Z,5.90
2023-03-26T22:44:19.975Z,5.90
2023-03-26T22:46:52.369Z,5.90
2023-03-26T22:49:30.085Z,5.90
2023-03-26T22:52:01.986Z,5.90
2023-03-26T22:54:34.439Z,5.80
2023-03-26T22:57:06.274Z,5.80
2023-03-26T22:59:38.122Z,5.80
2023-03-26T23:02:11.113Z,5.80
2023-03-26T23:04:44.050Z,5.80
2023-03-26T23:07:15.856Z,5.80
2023-03-26T23:09:47.656Z,5.80
2023-03-26T23:12:19.391Z,5.80
2023-03-26T23:14:52.934Z,5.80
2023-03-26T23:17:24.979Z,5.80
2023-03-26T23:19:56.737Z,5.80
2023-03-26T23:22:28.517Z,5.80
2023-03-26T23:25:00.290Z,5.80
2023-03-26T23:27:32.957Z,5.80
2023-03-26T23:30:05.297Z,5.90
2023-03-26T23:32:38.113Z,5.90
2023-03-26T23:35:10.207Z,5.80
2023-03-26T23:37:42.502Z,5.80
2023-03-26T23:40:14.620Z,5.80
2023-03-26T23:42:47.423Z,5.80
2023-03-26T23:45:19.251Z,5.80
2023-03-26T23:47:52.020Z,5.80
2023-03-26T23:50:23.741Z,5.80
2023-03-26T23:52:58.783Z,5.90
2023-03-26T23:55:30.943Z,5.90
2023-03-26T23:58:03.324Z,5.80
